CMA CGM Africa Three — C6YS8 — position and weather

sailwx.info

Track history (hours):
 
Tides and Currents Weather Stations Pressure Air Temp Water Temp Dewpoint Dewpoint Depression Visibility Wind Speed Wind Dir Waves Ship Positions

CMA CGM Africa Three

Last reported at 2018-Apr-21 09:00 UTC. Time now 2018-Apr-21 09:19 UTC.
Position N 51°03' E 002°04'.

Length 228 m; draft 9.5 m.

Type: Ship (hazmat cat A). MMSI: 311044200.

Date/timePositionNaut miles runAvg speedWind from/ knotsBaromVisibWave heightAir tempDewpointWater temp
2018-Apr-21 09:00N 51°03' E 002°04'714.9
2018-Apr-21 08:31N 51°03' E 001°53'2 3.5
2018-Apr-21 08:00N 51°03' E 001°50'0 0.8
2018-Apr-21 07:30N 51°03' E 001°50'0 0.0
2018-Apr-21 06:58N 51°03' E 001°50'0 0.3
2018-Apr-21 06:30N 51°04' E 001°50'0 0.2
2018-Apr-21 05:58N 51°04' E 001°50'0 0.0
2018-Apr-21 05:30N 51°04' E 001°50'0 0.1
2018-Apr-21 04:58N 51°04' E 001°50'0 0.0
2018-Apr-21 04:30N 51°04' E 001°50'1 2.1
2018-Apr-21 04:00N 51°04' E 001°48'4 8.3
2018-Apr-21 03:30N 51°06' E 001°42'3 7.0
2018-Apr-21 03:00N 51°09' E 001°40'4 7.2
2018-Apr-21 02:30N 51°11' E 001°43'4 8.4
2018-Apr-21 02:00N 51°15' E 001°47'5 9.1
2018-Apr-21 01:30N 51°18' E 001°52'510.6
2018-Apr-21 01:00N 51°22' E 001°57'4 8.7
2018-Apr-21 00:30N 51°24' E 002°04'5 9.7
2018-Apr-21 00:00N 51°22' E 002°11'510.2
2018-Apr-20 23:30N 51°21' E 002°19'611.8
2018-Apr-20 23:00N 51°22' E 002°28'611.1
2018-Apr-20 22:30N 51°23' E 002°37'510.5
2018-Apr-20 22:00N 51°23' E 002°45'715.0
2018-Apr-20 21:30N 51°25' E 002°57'1019.0
2018-Apr-20 21:00N 51°24' E 003°12'1019.7
2018-Apr-20 20:30N 51°25' E 003°28'917.1
2018-Apr-20 20:00N 51°27' E 003°41'1 2.9
2018-Apr-20 19:30N 51°28' E 003°43'0 0.0
2018-Apr-20 18:54N 51°28' E 003°43'0 0.0
2018-Apr-20 18:29N 51°28' E 003°43'0 0.0
2018-Apr-20 17:56N 51°28' E 003°43'0 0.0
2018-Apr-20 17:29N 51°28' E 003°43'0 0.0
2018-Apr-20 16:50N 51°28' E 003°43'0 0.0
2018-Apr-20 16:29N 51°28' E 003°43'0 0.0
2018-Apr-20 15:59N 51°28' E 003°43'0 0.0
2018-Apr-20 15:29N 51°28' E 003°43'0 0.0
2018-Apr-20 14:47N 51°28' E 003°43'0 0.0
2018-Apr-20 14:29N 51°28' E 003°43'0 0.0
2018-Apr-20 13:59N 51°28' E 003°43'0 0.0
2018-Apr-20 13:29N 51°28' E 003°43'0 0.0
2018-Apr-20 12:56N 51°28' E 003°43'0 0.0
2018-Apr-20 12:23N 51°28' E 003°43'0 0.0
2018-Apr-20 11:59N 51°28' E 003°43'0 0.0
2018-Apr-20 11:14N 51°28' E 003°43'0 0.0
2018-Apr-20 10:59N 51°28' E 003°43'0 0.0
2018-Apr-20 10:29N 51°28' E 003°43'0 0.0
2018-Apr-20 09:59N 51°28' E 003°43'0 0.0
2018-Apr-20 09:19N 51°28' E 003°43'0 0.0
2018-Apr-20 08:58N 51°28' E 003°43'0 0.0
2018-Apr-20 08:25N 51°28' E 003°43'0 0.0
2018-Apr-20 07:58N 51°28' E 003°43'0 0.0
2018-Apr-20 07:22N 51°28' E 003°43'0 0.0
2018-Apr-20 06:58N 51°28' E 003°43'0 0.0
2018-Apr-20 06:25N 51°28' E 003°43'0 0.0
2018-Apr-20 05:58N 51°28' E 003°43'0 0.0
2018-Apr-20 05:28N 51°28' E 003°43'0 0.0
2018-Apr-20 04:58N 51°28' E 003°43'0 0.0
2018-Apr-20 04:28N 51°28' E 003°43'0 0.0
2018-Apr-20 03:58N 51°28' E 003°43'0 0.0
2018-Apr-20 03:25N 51°28' E 003°43'0 0.0
2018-Apr-20 02:58N 51°28' E 003°43'0 0.0
2018-Apr-20 02:28N 51°28' E 003°43'0 0.0
2018-Apr-20 01:58N 51°28' E 003°43'0 0.0
2018-Apr-20 01:28N 51°28' E 003°43'0 0.0
2018-Apr-20 00:10N 51°28' E 003°43'0 0.0
2018-Apr-19 23:58N 51°28' E 003°43'0 0.0
2018-Apr-19 23:25N 51°28' E 003°43'0 0.0
2018-Apr-19 22:58N 51°28' E 003°43'0 0.0
2018-Apr-19 22:25N 51°28' E 003°43'0 0.0
2018-Apr-19 21:58N 51°28' E 003°43'0 0.0
2018-Apr-19 21:22N 51°28' E 003°43'0 0.0
2018-Apr-19 20:58N 51°28' E 003°43'0 0.0
2018-Apr-19 20:19N 51°28' E 003°43'0 0.0
2018-Apr-19 19:59N 51°28' E 003°43'1 1.2
2018-Apr-19 19:30N 51°28' E 003°42'4 7.8
2018-Apr-19 19:00N 51°24' E 003°43'815.1
2018-Apr-19 18:30N 51°22' E 003°54'611.8
2018-Apr-19 18:00N 51°25' E 004°02'510.9
2018-Apr-19 17:30N 51°24' E 004°11'5 9.8
2018-Apr-19 17:00N 51°20' E 004°16'0 0.3
2018-Apr-19 16:30N 51°20' E 004°16'0 0.0
2018-Apr-19 15:57N 51°20' E 004°16'0 0.0
2018-Apr-19 15:21N 51°20' E 004°16'0 0.0
2018-Apr-19 15:00N 51°20' E 004°16'0 0.0
2018-Apr-19 14:30N 51°20' E 004°16'0 0.0
2018-Apr-19 14:00N 51°20' E 004°16'0 0.0
2018-Apr-19 13:30N 51°20' E 004°16'0 0.0
2018-Apr-19 12:59N 51°20' E 004°16'0 0.0
2018-Apr-19 12:30N 51°20' E 004°16'0 0.0
2018-Apr-19 11:57N 51°20' E 004°16'0 0.0
2018-Apr-19 11:30N 51°20' E 004°16'0 0.0
2018-Apr-19 11:00N 51°20' E 004°16'0 0.0
2018-Apr-19 10:30N 51°20' E 004°16'0 0.0
2018-Apr-19 10:00N 51°20' E 004°16'0 0.0
2018-Apr-19 09:30N 51°20' E 004°16'0 0.0
2018-Apr-19 08:58N 51°20' E 004°16'0 0.0
2018-Apr-19 08:30N 51°20' E 004°16'0 0.0
2018-Apr-19 08:01N 51°20' E 004°16'0 0.0
2018-Apr-19 07:30N 51°20' E 004°16'0 0.0
2018-Apr-19 07:01N 51°20' E 004°16'0 0.0
2018-Apr-19 06:30N 51°20' E 004°16'0 0.0
2018-Apr-19 06:00N 51°20' E 004°16'0 0.0
2018-Apr-19 05:31N 51°20' E 004°16'0 0.0
2018-Apr-19 05:01N 51°20' E 004°16'0 0.0
2018-Apr-19 04:31N 51°20' E 004°16'0 0.0
2018-Apr-19 04:01N 51°20' E 004°16'0 0.0
2018-Apr-19 03:31N 51°20' E 004°16'0 0.0
2018-Apr-19 03:00N 51°20' E 004°16'0 0.0
2018-Apr-19 02:30N 51°20' E 004°16'0 0.0
2018-Apr-19 02:00N 51°20' E 004°16'0 0.0
2018-Apr-19 01:28N 51°20' E 004°16'0 0.0
2018-Apr-19 01:01N 51°20' E 004°16'0 0.0
2018-Apr-19 00:31N 51°20' E 004°16'0 0.0
2018-Apr-19 00:00N 51°20' E 004°16'0 0.0
2018-Apr-18 23:30N 51°20' E 004°16'0 0.0
2018-Apr-18 23:00N 51°20' E 004°16'0 0.0
2018-Apr-18 22:30N 51°20' E 004°16'0 0.0
2018-Apr-18 22:01N 51°20' E 004°16'0 0.0
2018-Apr-18 21:30N 51°20' E 004°16'0 0.0
2018-Apr-18 21:00N 51°20' E 004°16'0 0.0
2018-Apr-18 20:30N 51°20' E 004°16'0 0.0
2018-Apr-18 20:00N 51°20' E 004°16'0 0.0
2018-Apr-18 19:30N 51°20' E 004°16'0 0.0
2018-Apr-18 18:56N 51°20' E 004°16'0 0.0
2018-Apr-18 18:30N 51°20' E 004°16'0 0.0
2018-Apr-18 18:01N 51°20' E 004°16'1 2.5
2018-Apr-18 17:30N 51°21' E 004°15'4 7.8
2018-Apr-18 17:00N 51°23' E 004°09'511.3
2018-Apr-18 16:30N 51°26' E 004°01'612.7
2018-Apr-18 16:00N 51°21' E 003°54'713.3
2018-Apr-18 15:31N 51°23' E 003°43'611.3
2018-Apr-18 15:00N 51°26' E 003°35'612.7
2018-Apr-18 14:30N 51°25' E 003°25'1019.8
2018-Apr-18 14:00N 51°24' E 003°10'918.7
2018-Apr-18 13:30N 51°22' E 002°55'815.9
2018-Apr-18 13:00N 51°22' E 002°42'611.4
2018-Apr-18 12:29N 51°22' E 002°33'612.6
2018-Apr-18 12:00N 51°20' E 002°23'612.7
2018-Apr-18 11:30N 51°18' E 002°14'612.6
2018-Apr-18 11:00N 51°21' E 002°04'713.3
2018-Apr-18 10:30N 51°25' E 001°56'714.0
2018-Apr-18 10:00N 51°29' E 001°47'713.9
2018-Apr-18 09:30N 51°29' E 001°36'4 8.1
2018-Apr-18 09:00N 51°29' E 001°29'713.1
2018-Apr-18 08:30N 51°34' E 001°23'510.6
2018-Apr-18 08:00N 51°35' E 001°15'815.8
2018-Apr-18 07:30N 51°31' E 001°04'815.9
2018-Apr-18 07:00N 51°29' E 000°51'917.5
2018-Apr-18 06:30N 51°30' E 000°37'612.9
2018-Apr-18 06:00N 51°28' E 000°27'5 9.1
2018-Apr-18 05:31N 51°28' E 000°20'0 0.2
2018-Apr-18 05:01N 51°28' E 000°20'0 0.0
2018-Apr-18 04:30N 51°28' E 000°20'0 0.0
2018-Apr-18 04:01N 51°28' E 000°20'0 0.0
2018-Apr-18 03:31N 51°28' E 000°20'0 0.0
2018-Apr-18 03:01N 51°28' E 000°20'0 0.0
2018-Apr-18 02:31N 51°28' E 000°20'0 0.0
2018-Apr-18 02:00N 51°28' E 000°20'0 0.0
2018-Apr-18 01:31N 51°28' E 000°20'0 0.0
2018-Apr-18 01:00N 51°28' E 000°20'0 0.0
2018-Apr-18 00:30N 51°28' E 000°20'0 0.0
2018-Apr-18 00:01N 51°28' E 000°20'0 0.0
2018-Apr-17 23:31N 51°28' E 000°20'0 0.0
2018-Apr-17 23:01N 51°28' E 000°20'0 0.0
2018-Apr-17 22:31N 51°28' E 000°20'0 0.0
2018-Apr-17 22:00N 51°28' E 000°20'0 0.0
2018-Apr-17 21:31N 51°28' E 000°20'0 0.0
2018-Apr-17 21:01N 51°28' E 000°20'0 0.0
2018-Apr-17 20:31N 51°28' E 000°20'0 0.0
2018-Apr-17 20:01N 51°28' E 000°20'0 0.0
2018-Apr-17 19:31N 51°28' E 000°20'0 0.0
2018-Apr-17 19:00N 51°28' E 000°20'0 0.0
2018-Apr-17 18:31N 51°28' E 000°20'1 2.4
2018-Apr-17 18:01N 51°27' E 000°22'5 9.4
2018-Apr-17 17:30N 51°29' E 000°28'510.9
2018-Apr-17 17:00N 51°30' E 000°37'510.9
2018-Apr-17 16:30N 51°29' E 000°45'611.1
2018-Apr-17 16:00N 51°29' E 000°54'612.0
2018-Apr-17 15:30N 51°30' E 001°04'612.8
2018-Apr-17 15:00N 51°29' E 001°14'713.6
2018-Apr-17 14:30N 51°29' E 001°25'5 9.8
2018-Apr-17 14:00N 51°27' E 001°32'4 8.6
2018-Apr-17 13:29N 51°31' E 001°32'0 0.2
2018-Apr-17 12:58N 51°31' E 001°32'0 0.0
2018-Apr-17 12:30N 51°31' E 001°32'2 3.2
2018-Apr-17 12:00N 51°30' E 001°33'612.7
2018-Apr-17 11:31N 51°23' E 001°35'714.0
2018-Apr-17 11:00N 51°16' E 001°37'611.9
2018-Apr-17 10:30N 51°11' E 001°36'611.3
2018-Apr-17 10:00N 51°06' E 001°41'611.3
2018-Apr-17 09:30N 51°03' E 001°48'611.2
2018-Apr-17 09:00N 51°02' E 001°57'815.3
2018-Apr-17 08:30N 51°03' E 002°10'2 3.0
2018-Apr-17 07:50N 51°01' E 002°11'0 0.0
2018-Apr-17 07:29N 51°01' E 002°11'0 0.0
2018-Apr-17 06:58N 51°01' E 002°11'0 0.0
2018-Apr-17 06:30N 51°01' E 002°11'0 0.0
2018-Apr-17 05:59N 51°01' E 002°11'0 0.0
2018-Apr-17 05:27N 51°01' E 002°11'0 0.0
2018-Apr-17 05:00N 51°01' E 002°11'0 0.0
2018-Apr-17 04:27N 51°01' E 002°11'0 0.0
2018-Apr-17 03:51N 51°01' E 002°11'0 0.0
2018-Apr-17 03:21N 51°01' E 002°11'0 0.0
2018-Apr-17 02:59N 51°01' E 002°11'0 0.0
2018-Apr-17 02:28N 51°01' E 002°11'0 0.0
2018-Apr-17 01:55N 51°01' E 002°11'0 0.0
2018-Apr-17 01:27N 51°01' E 002°11'0 0.0
2018-Apr-17 00:57N 51°01' E 002°11'0 0.0
2018-Apr-17 00:27N 51°01' E 002°11'0 0.0
2018-Apr-16 23:59N 51°01' E 002°11'0 0.0
2018-Apr-16 23:25N 51°01' E 002°11'0 0.0
2018-Apr-16 22:46N 51°01' E 002°11'0 0.0
2018-Apr-16 22:25N 51°01' E 002°11'0 0.0
2018-Apr-16 21:55N 51°01' E 002°11'0 0.0
2018-Apr-16 21:22N 51°01' E 002°11'0 0.0
2018-Apr-16 20:57N 51°01' E 002°11'0 0.0
2018-Apr-16 20:29N 51°01' E 002°11'0 0.0
2018-Apr-16 19:38N 51°01' E 002°11'0 0.0
2018-Apr-16 19:25N 51°01' E 002°11'1 1.4
2018-Apr-16 18:59N 51°01' E 002°10'5 9.8
2018-Apr-16 18:30N 51°03' E 002°03'815.4
2018-Apr-16 18:00N 51°02' E 001°51'612.1
2018-Apr-16 17:30N 51°02' E 001°42'612.8
2018-Apr-16 17:00N 50°57' E 001°34'713.5
2018-Apr-16 16:30N 50°52' E 001°27'814.4
2018-Apr-16 15:58N 50°45' E 001°23'613.8
2018-Apr-16 15:30N 50°40' E 001°17'714.4
2018-Apr-16 15:00N 50°35' E 001°09'714.2
2018-Apr-16 14:30N 50°30' E 001°01'714.0
2018-Apr-16 14:00N 50°28' E 000°50'714.2
2018-Apr-16 13:30N 50°26' E 000°40'714.2
2018-Apr-16 13:00N 50°24' E 000°29'714.0
2018-Apr-16 12:31N 50°22' E 000°19'713.9
2018-Apr-16 12:01N 50°20' E 000°08'714.4
2018-Apr-16 11:30N 50°18' W 000°03'814.8
2018-Apr-16 11:00N 50°16' W 000°14'715.2
2018-Apr-16 10:30N 50°14' W 000°25'714.1
2018-Apr-16 10:00N 50°12' W 000°36'714.7
2018-Apr-16 09:30N 50°10' W 000°47'1018.4
2018-Apr-16 08:59N 50°08' W 001°02'1021.7
2018-Apr-16 08:30N 50°05' W 001°17'1224.2
2018-Apr-16 08:00N 50°03' W 001°36'1224.5
2018-Apr-16 07:30N 49°60' W 001°54'1224.4
2018-Apr-16 07:00N 49°57' W 002°13'1522.7
2018-Apr-16 06:21N 49°52' W 002°35'721.9
2018-Apr-16 06:00N 49°50' W 002°46'1221.5
2018-Apr-16 05:26N 49°44' W 003°03'921.4
2018-Apr-16 05:00N 49°40' W 003°15'10019.3
2018-Apr-15 23:48N 48°49' W 005°28'2612.2
2018-Apr-15 21:43N 48°28' W 005°50'57318.6
2018-Apr-14 14:59N 39°22' W 009°51'919.5
2018-Apr-14 14:30N 39°13' W 009°51'1019.5
2018-Apr-14 14:00N 39°03' W 009°50'1019.5
2018-Apr-14 13:30N 38°53' W 009°50'1019.5
2018-Apr-14 13:00N 38°44' W 009°51'1019.2
2018-Apr-14 12:30N 38°34' W 009°48'1019.1
2018-Apr-14 12:00N 38°25' W 009°46'1019.0
2018-Apr-14 11:30N 38°16' W 009°42'919.0
2018-Apr-14 11:01N 38°07' W 009°38'1018.9
2018-Apr-14 10:30N 37°57' W 009°37'918.8
2018-Apr-14 10:00N 37°48' W 009°34'918.7
2018-Apr-14 09:31N 37°39' W 009°32'21616.8
2018-Apr-13 20:39N 35°58' W 005°34'318.3
2018-Apr-13 20:30N 35°59' W 005°30'917.6
2018-Apr-13 20:00N 36°03' W 005°21'7 0.4
2018-Apr-13 00:12N 36°05' W 005°13'315.4
2018-Apr-13 00:00N 36°03' W 005°15'815.7
2018-Apr-12 23:30N 35°59' W 005°24'  
Track history (hours):
 
Tides and Currents Weather Stations Pressure Air Temp Water Temp Dewpoint Dewpoint Depression Visibility Wind Speed Wind Dir Waves Ship Positions

CMA CGM Africa Three

Last reported at 2018-Apr-21 09:00 UTC. Time now 2018-Apr-21 09:19 UTC.
Position N 51°03' E 002°04'.

Length 228 m; draft 9.5 m.

Type: Ship (hazmat cat A). MMSI: 311044200.

Date/timePositionNaut miles runAvg speedWind from/ knotsBaromVisibWave heightAir tempDewpointWater temp
2018-Apr-21 09:00N 51°03' E 002°04'714.9
2018-Apr-21 08:31N 51°03' E 001°53'2 3.5
2018-Apr-21 08:00N 51°03' E 001°50'0 0.8
2018-Apr-21 07:30N 51°03' E 001°50'0 0.0
2018-Apr-21 06:58N 51°03' E 001°50'0 0.3
2018-Apr-21 06:30N 51°04' E 001°50'0 0.2
2018-Apr-21 05:58N 51°04' E 001°50'0 0.0
2018-Apr-21 05:30N 51°04' E 001°50'0 0.1
2018-Apr-21 04:58N 51°04' E 001°50'0 0.0
2018-Apr-21 04:30N 51°04' E 001°50'1 2.1
2018-Apr-21 04:00N 51°04' E 001°48'4 8.3
2018-Apr-21 03:30N 51°06' E 001°42'3 7.0
2018-Apr-21 03:00N 51°09' E 001°40'4 7.2
2018-Apr-21 02:30N 51°11' E 001°43'4 8.4
2018-Apr-21 02:00N 51°15' E 001°47'5 9.1
2018-Apr-21 01:30N 51°18' E 001°52'510.6
2018-Apr-21 01:00N 51°22' E 001°57'4 8.7
2018-Apr-21 00:30N 51°24' E 002°04'5 9.7
2018-Apr-21 00:00N 51°22' E 002°11'510.2
2018-Apr-20 23:30N 51°21' E 002°19'611.8
2018-Apr-20 23:00N 51°22' E 002°28'611.1
2018-Apr-20 22:30N 51°23' E 002°37'510.5
2018-Apr-20 22:00N 51°23' E 002°45'715.0
2018-Apr-20 21:30N 51°25' E 002°57'1019.0
2018-Apr-20 21:00N 51°24' E 003°12'1019.7
2018-Apr-20 20:30N 51°25' E 003°28'917.1
2018-Apr-20 20:00N 51°27' E 003°41'1 2.9
2018-Apr-20 19:30N 51°28' E 003°43'0 0.0
2018-Apr-20 18:54N 51°28' E 003°43'0 0.0
2018-Apr-20 18:29N 51°28' E 003°43'0 0.0
2018-Apr-20 17:56N 51°28' E 003°43'0 0.0
2018-Apr-20 17:29N 51°28' E 003°43'0 0.0
2018-Apr-20 16:50N 51°28' E 003°43'0 0.0
2018-Apr-20 16:29N 51°28' E 003°43'0 0.0
2018-Apr-20 15:59N 51°28' E 003°43'0 0.0
2018-Apr-20 15:29N 51°28' E 003°43'0 0.0
2018-Apr-20 14:47N 51°28' E 003°43'0 0.0
2018-Apr-20 14:29N 51°28' E 003°43'0 0.0
2018-Apr-20 13:59N 51°28' E 003°43'0 0.0
2018-Apr-20 13:29N 51°28' E 003°43'0 0.0
2018-Apr-20 12:56N 51°28' E 003°43'0 0.0
2018-Apr-20 12:23N 51°28' E 003°43'0 0.0
2018-Apr-20 11:59N 51°28' E 003°43'0 0.0
2018-Apr-20 11:14N 51°28' E 003°43'0 0.0
2018-Apr-20 10:59N 51°28' E 003°43'0 0.0
2018-Apr-20 10:29N 51°28' E 003°43'0 0.0
2018-Apr-20 09:59N 51°28' E 003°43'0 0.0
2018-Apr-20 09:19N 51°28' E 003°43'0 0.0
2018-Apr-20 08:58N 51°28' E 003°43'0 0.0
2018-Apr-20 08:25N 51°28' E 003°43'0 0.0
2018-Apr-20 07:58N 51°28' E 003°43'0 0.0
2018-Apr-20 07:22N 51°28' E 003°43'0 0.0
2018-Apr-20 06:58N 51°28' E 003°43'0 0.0
2018-Apr-20 06:25N 51°28' E 003°43'0 0.0
2018-Apr-20 05:58N 51°28' E 003°43'0 0.0
2018-Apr-20 05:28N 51°28' E 003°43'0 0.0
2018-Apr-20 04:58N 51°28' E 003°43'0 0.0
2018-Apr-20 04:28N 51°28' E 003°43'0 0.0
2018-Apr-20 03:58N 51°28' E 003°43'0 0.0
2018-Apr-20 03:25N 51°28' E 003°43'0 0.0
2018-Apr-20 02:58N 51°28' E 003°43'0 0.0
2018-Apr-20 02:28N 51°28' E 003°43'0 0.0
2018-Apr-20 01:58N 51°28' E 003°43'0 0.0
2018-Apr-20 01:28N 51°28' E 003°43'0 0.0
2018-Apr-20 00:10N 51°28' E 003°43'0 0.0
2018-Apr-19 23:58N 51°28' E 003°43'0 0.0
2018-Apr-19 23:25N 51°28' E 003°43'0 0.0
2018-Apr-19 22:58N 51°28' E 003°43'0 0.0
2018-Apr-19 22:25N 51°28' E 003°43'0 0.0
2018-Apr-19 21:58N 51°28' E 003°43'0 0.0
2018-Apr-19 21:22N 51°28' E 003°43'0 0.0
2018-Apr-19 20:58N 51°28' E 003°43'0 0.0
2018-Apr-19 20:19N 51°28' E 003°43'0 0.0
2018-Apr-19 19:59N 51°28' E 003°43'1 1.2
2018-Apr-19 19:30N 51°28' E 003°42'4 7.8
2018-Apr-19 19:00N 51°24' E 003°43'815.1
2018-Apr-19 18:30N 51°22' E 003°54'611.8
2018-Apr-19 18:00N 51°25' E 004°02'510.9
2018-Apr-19 17:30N 51°24' E 004°11'5 9.8
2018-Apr-19 17:00N 51°20' E 004°16'0 0.3
2018-Apr-19 16:30N 51°20' E 004°16'0 0.0
2018-Apr-19 15:57N 51°20' E 004°16'0 0.0
2018-Apr-19 15:21N 51°20' E 004°16'0 0.0
2018-Apr-19 15:00N 51°20' E 004°16'0 0.0
2018-Apr-19 14:30N 51°20' E 004°16'0 0.0
2018-Apr-19 14:00N 51°20' E 004°16'0 0.0
2018-Apr-19 13:30N 51°20' E 004°16'0 0.0
2018-Apr-19 12:59N 51°20' E 004°16'0 0.0
2018-Apr-19 12:30N 51°20' E 004°16'0 0.0
2018-Apr-19 11:57N 51°20' E 004°16'0 0.0
2018-Apr-19 11:30N 51°20' E 004°16'0 0.0
2018-Apr-19 11:00N 51°20' E 004°16'0 0.0
2018-Apr-19 10:30N 51°20' E 004°16'0 0.0
2018-Apr-19 10:00N 51°20' E 004°16'0 0.0
2018-Apr-19 09:30N 51°20' E 004°16'0 0.0
2018-Apr-19 08:58N 51°20' E 004°16'0 0.0
2018-Apr-19 08:30N 51°20' E 004°16'0 0.0
2018-Apr-19 08:01N 51°20' E 004°16'0 0.0
2018-Apr-19 07:30N 51°20' E 004°16'0 0.0
2018-Apr-19 07:01N 51°20' E 004°16'0 0.0
2018-Apr-19 06:30N 51°20' E 004°16'0 0.0
2018-Apr-19 06:00N 51°20' E 004°16'0 0.0
2018-Apr-19 05:31N 51°20' E 004°16'0 0.0
2018-Apr-19 05:01N 51°20' E 004°16'0 0.0
2018-Apr-19 04:31N 51°20' E 004°16'0 0.0
2018-Apr-19 04:01N 51°20' E 004°16'0 0.0
2018-Apr-19 03:31N 51°20' E 004°16'0 0.0
2018-Apr-19 03:00N 51°20' E 004°16'0 0.0
2018-Apr-19 02:30N 51°20' E 004°16'0 0.0
2018-Apr-19 02:00N 51°20' E 004°16'0 0.0
2018-Apr-19 01:28N 51°20' E 004°16'0 0.0
2018-Apr-19 01:01N 51°20' E 004°16'0 0.0
2018-Apr-19 00:31N 51°20' E 004°16'0 0.0
2018-Apr-19 00:00N 51°20' E 004°16'0 0.0
2018-Apr-18 23:30N 51°20' E 004°16'0 0.0
2018-Apr-18 23:00N 51°20' E 004°16'0 0.0
2018-Apr-18 22:30N 51°20' E 004°16'0 0.0
2018-Apr-18 22:01N 51°20' E 004°16'0 0.0
2018-Apr-18 21:30N 51°20' E 004°16'0 0.0
2018-Apr-18 21:00N 51°20' E 004°16'0 0.0
2018-Apr-18 20:30N 51°20' E 004°16'0 0.0
2018-Apr-18 20:00N 51°20' E 004°16'0 0.0
2018-Apr-18 19:30N 51°20' E 004°16'0 0.0
2018-Apr-18 18:56N 51°20' E 004°16'0 0.0
2018-Apr-18 18:30N 51°20' E 004°16'0 0.0
2018-Apr-18 18:01N 51°20' E 004°16'1 2.5
2018-Apr-18 17:30N 51°21' E 004°15'4 7.8
2018-Apr-18 17:00N 51°23' E 004°09'511.3
2018-Apr-18 16:30N 51°26' E 004°01'612.7
2018-Apr-18 16:00N 51°21' E 003°54'713.3
2018-Apr-18 15:31N 51°23' E 003°43'611.3
2018-Apr-18 15:00N 51°26' E 003°35'612.7
2018-Apr-18 14:30N 51°25' E 003°25'1019.8
2018-Apr-18 14:00N 51°24' E 003°10'918.7
2018-Apr-18 13:30N 51°22' E 002°55'815.9
2018-Apr-18 13:00N 51°22' E 002°42'611.4
2018-Apr-18 12:29N 51°22' E 002°33'612.6
2018-Apr-18 12:00N 51°20' E 002°23'612.7
2018-Apr-18 11:30N 51°18' E 002°14'612.6
2018-Apr-18 11:00N 51°21' E 002°04'713.3
2018-Apr-18 10:30N 51°25' E 001°56'714.0
2018-Apr-18 10:00N 51°29' E 001°47'713.9
2018-Apr-18 09:30N 51°29' E 001°36'4 8.1
2018-Apr-18 09:00N 51°29' E 001°29'713.1
2018-Apr-18 08:30N 51°34' E 001°23'510.6
2018-Apr-18 08:00N 51°35' E 001°15'815.8
2018-Apr-18 07:30N 51°31' E 001°04'815.9
2018-Apr-18 07:00N 51°29' E 000°51'917.5
2018-Apr-18 06:30N 51°30' E 000°37'612.9
2018-Apr-18 06:00N 51°28' E 000°27'5 9.1
2018-Apr-18 05:31N 51°28' E 000°20'0 0.2
2018-Apr-18 05:01N 51°28' E 000°20'0 0.0
2018-Apr-18 04:30N 51°28' E 000°20'0 0.0
2018-Apr-18 04:01N 51°28' E 000°20'0 0.0
2018-Apr-18 03:31N 51°28' E 000°20'0 0.0
2018-Apr-18 03:01N 51°28' E 000°20'0 0.0
2018-Apr-18 02:31N 51°28' E 000°20'0 0.0
2018-Apr-18 02:00N 51°28' E 000°20'0 0.0
2018-Apr-18 01:31N 51°28' E 000°20'0 0.0
2018-Apr-18 01:00N 51°28' E 000°20'0 0.0
2018-Apr-18 00:30N 51°28' E 000°20'0 0.0
2018-Apr-18 00:01N 51°28' E 000°20'0 0.0
2018-Apr-17 23:31N 51°28' E 000°20'0 0.0
2018-Apr-17 23:01N 51°28' E 000°20'0 0.0
2018-Apr-17 22:31N 51°28' E 000°20'0 0.0
2018-Apr-17 22:00N 51°28' E 000°20'0 0.0
2018-Apr-17 21:31N 51°28' E 000°20'0 0.0
2018-Apr-17 21:01N 51°28' E 000°20'0 0.0
2018-Apr-17 20:31N 51°28' E 000°20'0 0.0
2018-Apr-17 20:01N 51°28' E 000°20'0 0.0
2018-Apr-17 19:31N 51°28' E 000°20'0 0.0
2018-Apr-17 19:00N 51°28' E 000°20'0 0.0
2018-Apr-17 18:31N 51°28' E 000°20'1 2.4
2018-Apr-17 18:01N 51°27' E 000°22'5 9.4
2018-Apr-17 17:30N 51°29' E 000°28'510.9
2018-Apr-17 17:00N 51°30' E 000°37'510.9
2018-Apr-17 16:30N 51°29' E 000°45'611.1
2018-Apr-17 16:00N 51°29' E 000°54'612.0
2018-Apr-17 15:30N 51°30' E 001°04'612.8
2018-Apr-17 15:00N 51°29' E 001°14'713.6
2018-Apr-17 14:30N 51°29' E 001°25'5 9.8
2018-Apr-17 14:00N 51°27' E 001°32'4 8.6
2018-Apr-17 13:29N 51°31' E 001°32'0 0.2
2018-Apr-17 12:58N 51°31' E 001°32'0 0.0
2018-Apr-17 12:30N 51°31' E 001°32'2 3.2
2018-Apr-17 12:00N 51°30' E 001°33'612.7
2018-Apr-17 11:31N 51°23' E 001°35'714.0
2018-Apr-17 11:00N 51°16' E 001°37'611.9
2018-Apr-17 10:30N 51°11' E 001°36'611.3
2018-Apr-17 10:00N 51°06' E 001°41'611.3
2018-Apr-17 09:30N 51°03' E 001°48'611.2
2018-Apr-17 09:00N 51°02' E 001°57'815.3
2018-Apr-17 08:30N 51°03' E 002°10'2 3.0
2018-Apr-17 07:50N 51°01' E 002°11'0 0.0
2018-Apr-17 07:29N 51°01' E 002°11'0 0.0
2018-Apr-17 06:58N 51°01' E 002°11'0 0.0
2018-Apr-17 06:30N 51°01' E 002°11'0 0.0
2018-Apr-17 05:59N 51°01' E 002°11'0 0.0
2018-Apr-17 05:27N 51°01' E 002°11'0 0.0
2018-Apr-17 05:00N 51°01' E 002°11'0 0.0
2018-Apr-17 04:27N 51°01' E 002°11'0 0.0
2018-Apr-17 03:51N 51°01' E 002°11'0 0.0
2018-Apr-17 03:21N 51°01' E 002°11'0 0.0
2018-Apr-17 02:59N 51°01' E 002°11'0 0.0
2018-Apr-17 02:28N 51°01' E 002°11'0 0.0
2018-Apr-17 01:55N 51°01' E 002°11'0 0.0
2018-Apr-17 01:27N 51°01' E 002°11'0 0.0
2018-Apr-17 00:57N 51°01' E 002°11'0 0.0
2018-Apr-17 00:27N 51°01' E 002°11'0 0.0
2018-Apr-16 23:59N 51°01' E 002°11'0 0.0
2018-Apr-16 23:25N 51°01' E 002°11'0 0.0
2018-Apr-16 22:46N 51°01' E 002°11'0 0.0
2018-Apr-16 22:25N 51°01' E 002°11'0 0.0
2018-Apr-16 21:55N 51°01' E 002°11'0 0.0
2018-Apr-16 21:22N 51°01' E 002°11'0 0.0
2018-Apr-16 20:57N 51°01' E 002°11'0 0.0
2018-Apr-16 20:29N 51°01' E 002°11'0 0.0
2018-Apr-16 19:38N 51°01' E 002°11'0 0.0
2018-Apr-16 19:25N 51°01' E 002°11'1 1.4
2018-Apr-16 18:59N 51°01' E 002°10'5 9.8
2018-Apr-16 18:30N 51°03' E 002°03'815.4
2018-Apr-16 18:00N 51°02' E 001°51'612.1
2018-Apr-16 17:30N 51°02' E 001°42'612.8
2018-Apr-16 17:00N 50°57' E 001°34'713.5
2018-Apr-16 16:30N 50°52' E 001°27'814.4
2018-Apr-16 15:58N 50°45' E 001°23'613.8
2018-Apr-16 15:30N 50°40' E 001°17'714.4
2018-Apr-16 15:00N 50°35' E 001°09'714.2
2018-Apr-16 14:30N 50°30' E 001°01'714.0
2018-Apr-16 14:00N 50°28' E 000°50'714.2
2018-Apr-16 13:30N 50°26' E 000°40'714.2
2018-Apr-16 13:00N 50°24' E 000°29'714.0
2018-Apr-16 12:31N 50°22' E 000°19'713.9
2018-Apr-16 12:01N 50°20' E 000°08'714.4
2018-Apr-16 11:30N 50°18' W 000°03'814.8
2018-Apr-16 11:00N 50°16' W 000°14'715.2
2018-Apr-16 10:30N 50°14' W 000°25'714.1
2018-Apr-16 10:00N 50°12' W 000°36'714.7
2018-Apr-16 09:30N 50°10' W 000°47'1018.4
2018-Apr-16 08:59N 50°08' W 001°02'1021.7
2018-Apr-16 08:30N 50°05' W 001°17'1224.2
2018-Apr-16 08:00N 50°03' W 001°36'1224.5
2018-Apr-16 07:30N 49°60' W 001°54'1224.4
2018-Apr-16 07:00N 49°57' W 002°13'1522.7
2018-Apr-16 06:21N 49°52' W 002°35'721.9
2018-Apr-16 06:00N 49°50' W 002°46'1221.5
2018-Apr-16 05:26N 49°44' W 003°03'921.4
2018-Apr-16 05:00N 49°40' W 003°15'10019.3
2018-Apr-15 23:48N 48°49' W 005°28'2612.2
2018-Apr-15 21:43N 48°28' W 005°50'57318.6
2018-Apr-14 14:59N 39°22' W 009°51'919.5
2018-Apr-14 14:30N 39°13' W 009°51'1019.5
2018-Apr-14 14:00N 39°03' W 009°50'1019.5
2018-Apr-14 13:30N 38°53' W 009°50'1019.5
2018-Apr-14 13:00N 38°44' W 009°51'1019.2
2018-Apr-14 12:30N 38°34' W 009°48'1019.1
2018-Apr-14 12:00N 38°25' W 009°46'1019.0
2018-Apr-14 11:30N 38°16' W 009°42'919.0
2018-Apr-14 11:01N 38°07' W 009°38'1018.9
2018-Apr-14 10:30N 37°57' W 009°37'918.8
2018-Apr-14 10:00N 37°48' W 009°34'918.7
2018-Apr-14 09:31N 37°39' W 009°32'21616.8
2018-Apr-13 20:39N 35°58' W 005°34'318.3
2018-Apr-13 20:30N 35°59' W 005°30'917.6
2018-Apr-13 20:00N 36°03' W 005°21'7 0.4
2018-Apr-13 00:12N 36°05' W 005°13'315.4
2018-Apr-13 00:00N 36°03' W 005°15'815.7
2018-Apr-12 23:30N 35°59' W 005°24'  

Dump ship's entire track history